Aviation Digital Data Service (ADDS)

Output produced by TAFs form (1017 UTC 19 April 2014)
found at http://aviationweather.gov/adds/tafs/
 
KROW 190526Z 1906/2006 17007KT P6SM BKN120 
     FM190900 15006KT P6SM VCSH BKN050 OVC080 
     FM191200 17009KT P6SM SCT080 BKN100 
     FM191800 16013KT P6SM VCSH SCT050 BKN080 
     FM200300 VRB04KT P6SM BKN100